sensor_id;sensor_type;location;lat;lon;timestamp;temperature;humidity
39315;DHT22;28703;44.412;11.918;2024-02-21T00:01:53;8.70;99.90
39315;DHT22;28703;44.412;11.918;2024-02-21T00:04:19;8.70;99.90
39315;DHT22;28703;44.412;11.918;2024-02-21T00:06:45;8.70;99.90
39315;DHT22;28703;44.412;11.918;2024-02-21T00:09:11;8.60;99.90
39315;DHT22;28703;44.412;11.918;2024-02-21T00:11:36;8.60;99.90
39315;DHT22;28703;44.412;11.918;2024-02-21T00:14:02;8.50;99.90
39315;DHT22;28703;44.412;11.918;2024-02-21T00:16:28;8.40;99.90
39315;DHT22;28703;44.412;11.918;2024-02-21T00:18:53;8.40;99.90
39315;DHT22;28703;44.412;11.918;2024-02-21T00:21:19;8.30;99.90
39315;DHT22;28703;44.412;11.918;2024-02-21T00:23:45;8.10;99.90
39315;DHT22;28703;44.412;11.918;2024-02-21T00:26:16;8.10;99.90
39315;DHT22;28703;44.412;11.918;2024-02-21T00:28:41;8.00;99.90
39315;DHT22;28703;44.412;11.918;2024-02-21T00:31:07;8.00;99.90
39315;DHT22;28703;44.412;11.918;2024-02-21T00:33:33;8.00;99.90
39315;DHT22;28703;44.412;11.918;2024-02-21T00:35:59;7.90;99.90
39315;DHT22;28703;44.412;11.918;2024-02-21T00:38:24;7.80;99.90
39315;DHT22;28703;44.412;11.918;2024-02-21T00:40:50;7.80;99.90
39315;DHT22;28703;44.412;11.918;2024-02-21T00:43:16;7.80;99.90
39315;DHT22;28703;44.412;11.918;2024-02-21T00:45:41;7.70;99.90
39315;DHT22;28703;44.412;11.918;2024-02-21T00:48:07;7.70;99.90
39315;DHT22;28703;44.412;11.918;2024-02-21T00:50:33;7.60;99.90
39315;DHT22;28703;44.412;11.918;2024-02-21T00:52:59;7.60;99.90
39315;DHT22;28703;44.412;11.918;2024-02-21T00:55:24;7.60;99.90
39315;DHT22;28703;44.412;11.918;2024-02-21T00:57:50;7.50;99.90
39315;DHT22;28703;44.412;11.918;2024-02-21T01:00:16;7.50;99.90
39315;DHT22;28703;44.412;11.918;2024-02-21T01:02:42;7.50;99.90
39315;DHT22;28703;44.412;11.918;2024-02-21T01:05:08;7.50;99.90
39315;DHT22;28703;44.412;11.918;2024-02-21T01:07:33;7.60;99.90
39315;DHT22;28703;44.412;11.918;2024-02-21T01:09:59;7.60;99.90
39315;DHT22;28703;44.412;11.918;2024-02-21T01:12:25;7.60;99.90
39315;DHT22;28703;44.412;11.918;2024-02-21T01:14:51;7.70;99.90
39315;DHT22;28703;44.412;11.918;2024-02-21T01:17:17;7.70;99.90
39315;DHT22;28703;44.412;11.918;2024-02-21T01:19:42;7.60;99.90
39315;DHT22;28703;44.412;11.918;2024-02-21T01:22:08;7.70;99.90
39315;DHT22;28703;44.412;11.918;2024-02-21T01:24:34;7.70;99.90
39315;DHT22;28703;44.412;11.918;2024-02-21T01:27:00;7.60;99.90
39315;DHT22;28703;44.412;11.918;2024-02-21T01:29:26;7.70;99.90
39315;DHT22;28703;44.412;11.918;2024-02-21T01:31:51;7.70;99.90
39315;DHT22;28703;44.412;11.918;2024-02-21T01:34:17;7.70;99.90
39315;DHT22;28703;44.412;11.918;2024-02-21T01:36:43;7.70;99.90
39315;DHT22;28703;44.412;11.918;2024-02-21T01:39:08;7.70;99.90
39315;DHT22;28703;44.412;11.918;2024-02-21T01:41:34;7.60;99.90
39315;DHT22;28703;44.412;11.918;2024-02-21T01:44:00;7.60;99.90
39315;DHT22;28703;44.412;11.918;2024-02-21T01:46:26;7.50;99.90
39315;DHT22;28703;44.412;11.918;2024-02-21T01:48:57;7.50;99.90
39315;DHT22;28703;44.412;11.918;2024-02-21T01:51:24;7.50;99.90
39315;DHT22;28703;44.412;11.918;2024-02-21T01:53:51;7.40;99.90
39315;DHT22;28703;44.412;11.918;2024-02-21T01:56:17;7.40;99.90
39315;DHT22;28703;44.412;11.918;2024-02-21T01:58:44;7.40;99.90
39315;DHT22;28703;44.412;11.918;2024-02-21T02:01:12;7.40;99.90
39315;DHT22;28703;44.412;11.918;2024-02-21T02:03:37;7.40;99.90
39315;DHT22;28703;44.412;11.918;2024-02-21T02:06:05;7.40;99.90
39315;DHT22;28703;44.412;11.918;2024-02-21T02:08:32;7.40;99.90
39315;DHT22;28703;44.412;11.918;2024-02-21T02:10:59;7.40;99.90
39315;DHT22;28703;44.412;11.918;2024-02-21T02:13:24;7.40;99.90
39315;DHT22;28703;44.412;11.918;2024-02-21T02:15:50;7.30;99.90
39315;DHT22;28703;44.412;11.918;2024-02-21T02:18:17;7.30;99.90
39315;DHT22;28703;44.412;11.918;2024-02-21T02:20:45;7.30;99.90
39315;DHT22;28703;44.412;11.918;2024-02-21T02:23:30;7.30;99.90
39315;DHT22;28703;44.412;11.918;2024-02-21T02:25:59;7.20;99.90
39315;DHT22;28703;44.412;11.918;2024-02-21T02:28:28;7.10;99.90
39315;DHT22;28703;44.412;11.918;2024-02-21T02:30:54;7.10;99.90
39315;DHT22;28703;44.412;11.918;2024-02-21T02:33:20;7.20;99.90
39315;DHT22;28703;44.412;11.918;2024-02-21T02:35:46;7.20;99.90
39315;DHT22;28703;44.412;11.918;2024-02-21T02:38:12;7.30;99.90
39315;DHT22;28703;44.412;11.918;2024-02-21T02:40:39;7.30;99.90
39315;DHT22;28703;44.412;11.918;2024-02-21T02:43:06;7.30;99.90
39315;DHT22;28703;44.412;11.918;2024-02-21T02:45:32;7.40;99.90
39315;DHT22;28703;44.412;11.918;2024-02-21T02:47:58;7.40;99.90
39315;DHT22;28703;44.412;11.918;2024-02-21T02:50:24;7.40;99.90
39315;DHT22;28703;44.412;11.918;2024-02-21T02:52:50;7.40;99.90
39315;DHT22;28703;44.412;11.918;2024-02-21T02:55:16;7.50;99.90
39315;DHT22;28703;44.412;11.918;2024-02-21T02:57:42;7.50;99.90
39315;DHT22;28703;44.412;11.918;2024-02-21T03:00:08;7.50;99.90
39315;DHT22;28703;44.412;11.918;2024-02-21T03:02:35;7.50;99.90
39315;DHT22;28703;44.412;11.918;2024-02-21T03:05:01;7.50;99.90
39315;DHT22;28703;44.412;11.918;2024-02-21T03:07:35;7.50;99.90
39315;DHT22;28703;44.412;11.918;2024-02-21T03:10:01;7.50;99.90
39315;DHT22;28703;44.412;11.918;2024-02-21T03:12:26;7.40;99.90
39315;DHT22;28703;44.412;11.918;2024-02-21T03:14:53;7.40;99.90
39315;DHT22;28703;44.412;11.918;2024-02-21T03:17:19;7.40;99.90
39315;DHT22;28703;44.412;11.918;2024-02-21T03:19:45;7.40;99.90
39315;DHT22;28703;44.412;11.918;2024-02-21T03:22:11;7.30;99.90
39315;DHT22;28703;44.412;11.918;2024-02-21T03:24:36;7.30;99.90
39315;DHT22;28703;44.412;11.918;2024-02-21T03:27:02;7.30;99.90
39315;DHT22;28703;44.412;11.918;2024-02-21T03:29:28;7.30;99.90
39315;DHT22;28703;44.412;11.918;2024-02-21T03:31:53;7.20;99.90
39315;DHT22;28703;44.412;11.918;2024-02-21T03:34:20;7.10;99.90
39315;DHT22;28703;44.412;11.918;2024-02-21T03:36:46;7.10;99.90
39315;DHT22;28703;44.412;11.918;2024-02-21T03:39:11;7.00;99.90
39315;DHT22;28703;44.412;11.918;2024-02-21T03:41:37;6.90;99.90
39315;DHT22;28703;44.412;11.918;2024-02-21T03:44:03;6.80;99.90
39315;DHT22;28703;44.412;11.918;2024-02-21T03:46:28;6.70;99.90
39315;DHT22;28703;44.412;11.918;2024-02-21T03:48:54;6.70;99.90
39315;DHT22;28703;44.412;11.918;2024-02-21T03:51:20;6.60;99.90
39315;DHT22;28703;44.412;11.918;2024-02-21T03:53:46;6.60;99.90
39315;DHT22;28703;44.412;11.918;2024-02-21T03:56:11;6.60;99.90
39315;DHT22;28703;44.412;11.918;2024-02-21T03:58:37;6.60;99.90
39315;DHT22;28703;44.412;11.918;2024-02-21T04:01:03;6.60;99.90
39315;DHT22;28703;44.412;11.918;2024-02-21T04:03:30;6.70;99.90
39315;DHT22;28703;44.412;11.918;2024-02-21T04:05:56;6.70;99.90
39315;DHT22;28703;44.412;11.918;2024-02-21T04:08:22;6.70;99.90
39315;DHT22;28703;44.412;11.918;2024-02-21T04:10:48;6.70;99.90
39315;DHT22;28703;44.412;11.918;2024-02-21T04:13:14;6.70;99.90
39315;DHT22;28703;44.412;11.918;2024-02-21T04:15:40;6.70;99.90
39315;DHT22;28703;44.412;11.918;2024-02-21T04:18:06;6.70;99.90
39315;DHT22;28703;44.412;11.918;2024-02-21T04:20:31;6.70;99.90
39315;DHT22;28703;44.412;11.918;2024-02-21T04:22:57;6.70;99.90
39315;DHT22;28703;44.412;11.918;2024-02-21T04:25:23;6.70;99.90
39315;DHT22;28703;44.412;11.918;2024-02-21T04:27:49;6.60;99.90
39315;DHT22;28703;44.412;11.918;2024-02-21T04:30:15;6.60;99.90
39315;DHT22;28703;44.412;11.918;2024-02-21T04:32:41;6.50;99.90
39315;DHT22;28703;44.412;11.918;2024-02-21T04:35:07;6.50;99.90
39315;DHT22;28703;44.412;11.918;2024-02-21T04:37:33;6.40;99.90
39315;DHT22;28703;44.412;11.918;2024-02-21T04:39:59;6.40;99.90
39315;DHT22;28703;44.412;11.918;2024-02-21T04:42:25;6.40;99.90
39315;DHT22;28703;44.412;11.918;2024-02-21T04:44:51;6.40;99.90
39315;DHT22;28703;44.412;11.918;2024-02-21T04:47:16;6.40;99.90
39315;DHT22;28703;44.412;11.918;2024-02-21T04:49:42;6.40;99.90
39315;DHT22;28703;44.412;11.918;2024-02-21T04:52:08;6.30;99.90
39315;DHT22;28703;44.412;11.918;2024-02-21T04:54:34;6.30;99.90
39315;DHT22;28703;44.412;11.918;2024-02-21T04:57:01;6.30;99.90
39315;DHT22;28703;44.412;11.918;2024-02-21T04:59:26;6.20;99.90
39315;DHT22;28703;44.412;11.918;2024-02-21T05:01:52;6.20;99.90
39315;DHT22;28703;44.412;11.918;2024-02-21T05:04:18;6.10;99.90
39315;DHT22;28703;44.412;11.918;2024-02-21T05:06:44;6.20;99.90
39315;DHT22;28703;44.412;11.918;2024-02-21T05:09:10;6.20;99.90
39315;DHT22;28703;44.412;11.918;2024-02-21T05:11:36;6.20;99.90
39315;DHT22;28703;44.412;11.918;2024-02-21T05:14:03;6.30;99.90
39315;DHT22;28703;44.412;11.918;2024-02-21T05:16:30;6.20;99.90
39315;DHT22;28703;44.412;11.918;2024-02-21T05:18:56;6.20;99.90
39315;DHT22;28703;44.412;11.918;2024-02-21T05:21:24;6.30;99.90
39315;DHT22;28703;44.412;11.918;2024-02-21T05:23:51;6.20;99.90
39315;DHT22;28703;44.412;11.918;2024-02-21T05:26:27;6.10;99.90
39315;DHT22;28703;44.412;11.918;2024-02-21T05:28:53;6.10;99.90
39315;DHT22;28703;44.412;11.918;2024-02-21T05:31:19;6.00;99.90
39315;DHT22;28703;44.412;11.918;2024-02-21T05:33:46;6.00;99.90
39315;DHT22;28703;44.412;11.918;2024-02-21T05:36:12;5.90;99.90
39315;DHT22;28703;44.412;11.918;2024-02-21T05:38:38;5.90;99.90
39315;DHT22;28703;44.412;11.918;2024-02-21T05:41:04;5.90;99.90
39315;DHT22;28703;44.412;11.918;2024-02-21T05:43:30;5.90;99.90
39315;DHT22;28703;44.412;11.918;2024-02-21T05:45:56;5.90;99.90
39315;DHT22;28703;44.412;11.918;2024-02-21T05:48:22;5.80;99.90
39315;DHT22;28703;44.412;11.918;2024-02-21T05:50:48;5.70;99.90
39315;DHT22;28703;44.412;11.918;2024-02-21T05:53:14;5.70;99.90
39315;DHT22;28703;44.412;11.918;2024-02-21T05:55:40;5.60;99.90
39315;DHT22;28703;44.412;11.918;2024-02-21T05:58:06;5.70;99.90
39315;DHT22;28703;44.412;11.918;2024-02-21T06:00:32;5.70;99.90
39315;DHT22;28703;44.412;11.918;2024-02-21T06:02:59;5.80;99.90
39315;DHT22;28703;44.412;11.918;2024-02-21T06:05:24;5.70;99.90
39315;DHT22;28703;44.412;11.918;2024-02-21T06:07:50;5.70;99.90
39315;DHT22;28703;44.412;11.918;2024-02-21T06:10:16;5.70;99.90
39315;DHT22;28703;44.412;11.918;2024-02-21T06:12:42;5.70;99.90
39315;DHT22;28703;44.412;11.918;2024-02-21T06:15:08;5.80;99.90
39315;DHT22;28703;44.412;11.918;2024-02-21T06:17:34;5.90;99.90
39315;DHT22;28703;44.412;11.918;2024-02-21T06:20:00;6.00;99.90
39315;DHT22;28703;44.412;11.918;2024-02-21T06:22:25;6.00;99.90
39315;DHT22;28703;44.412;11.918;2024-02-21T06:24:51;5.90;99.90
39315;DHT22;28703;44.412;11.918;2024-02-21T06:27:18;5.90;99.90
39315;DHT22;28703;44.412;11.918;2024-02-21T06:29:44;5.90;99.90
39315;DHT22;28703;44.412;11.918;2024-02-21T06:32:10;6.00;99.90
39315;DHT22;28703;44.412;11.918;2024-02-21T06:34:36;6.00;99.90
39315;DHT22;28703;44.412;11.918;2024-02-21T06:37:01;6.10;99.90
39315;DHT22;28703;44.412;11.918;2024-02-21T06:39:27;6.00;99.90
39315;DHT22;28703;44.412;11.918;2024-02-21T06:41:54;6.10;99.90
39315;DHT22;28703;44.412;11.918;2024-02-21T06:44:21;6.10;99.90
39315;DHT22;28703;44.412;11.918;2024-02-21T06:46:47;6.10;99.90
39315;DHT22;28703;44.412;11.918;2024-02-21T06:49:13;6.00;99.90
39315;DHT22;28703;44.412;11.918;2024-02-21T06:51:44;6.00;99.90
39315;DHT22;28703;44.412;11.918;2024-02-21T06:54:10;6.00;99.90
39315;DHT22;28703;44.412;11.918;2024-02-21T06:56:37;6.00;99.90
39315;DHT22;28703;44.412;11.918;2024-02-21T06:59:03;6.00;99.90
39315;DHT22;28703;44.412;11.918;2024-02-21T07:01:30;6.00;99.90
39315;DHT22;28703;44.412;11.918;2024-02-21T07:03:56;6.00;99.90
39315;DHT22;28703;44.412;11.918;2024-02-21T07:06:22;6.00;99.90
39315;DHT22;28703;44.412;11.918;2024-02-21T07:08:48;6.00;99.90
39315;DHT22;28703;44.412;11.918;2024-02-21T07:11:13;6.10;99.90
39315;DHT22;28703;44.412;11.918;2024-02-21T07:13:39;6.10;99.90
39315;DHT22;28703;44.412;11.918;2024-02-21T07:16:06;6.10;99.90
39315;DHT22;28703;44.412;11.918;2024-02-21T07:18:32;6.20;99.90
39315;DHT22;28703;44.412;11.918;2024-02-21T07:20:58;6.30;99.90
39315;DHT22;28703;44.412;11.918;2024-02-21T07:23:24;6.40;99.90
39315;DHT22;28703;44.412;11.918;2024-02-21T07:25:50;6.50;99.90
39315;DHT22;28703;44.412;11.918;2024-02-21T07:28:15;6.60;99.90
39315;DHT22;28703;44.412;11.918;2024-02-21T07:30:42;6.70;99.90
39315;DHT22;28703;44.412;11.918;2024-02-21T07:33:09;6.80;99.90
39315;DHT22;28703;44.412;11.918;2024-02-21T07:35:35;6.90;99.90
39315;DHT22;28703;44.412;11.918;2024-02-21T07:38:06;7.00;99.90
39315;DHT22;28703;44.412;11.918;2024-02-21T07:40:32;7.00;99.90
39315;DHT22;28703;44.412;11.918;2024-02-21T07:42:58;7.10;99.90
39315;DHT22;28703;44.412;11.918;2024-02-21T07:45:24;7.20;99.90
39315;DHT22;28703;44.412;11.918;2024-02-21T07:47:50;7.30;99.90
39315;DHT22;28703;44.412;11.918;2024-02-21T07:50:16;7.40;99.90
39315;DHT22;28703;44.412;11.918;2024-02-21T07:52:42;7.40;99.90
39315;DHT22;28703;44.412;11.918;2024-02-21T07:55:08;7.50;99.90
39315;DHT22;28703;44.412;11.918;2024-02-21T07:57:36;7.50;99.90
39315;DHT22;28703;44.412;11.918;2024-02-21T08:00:02;7.60;99.90
39315;DHT22;28703;44.412;11.918;2024-02-21T08:02:38;7.70;99.90
39315;DHT22;28703;44.412;11.918;2024-02-21T08:05:03;7.80;99.90
39315;DHT22;28703;44.412;11.918;2024-02-21T08:07:29;7.90;99.90
39315;DHT22;28703;44.412;11.918;2024-02-21T08:09:56;8.00;99.90
39315;DHT22;28703;44.412;11.918;2024-02-21T08:12:22;8.10;99.90
39315;DHT22;28703;44.412;11.918;2024-02-21T08:14:48;8.20;99.90
39315;DHT22;28703;44.412;11.918;2024-02-21T08:17:13;8.30;99.90
39315;DHT22;28703;44.412;11.918;2024-02-21T08:19:39;8.40;99.90
39315;DHT22;28703;44.412;11.918;2024-02-21T08:22:05;8.60;99.90
39315;DHT22;28703;44.412;11.918;2024-02-21T08:24:31;8.70;99.90
39315;DHT22;28703;44.412;11.918;2024-02-21T08:26:57;8.80;99.90
39315;DHT22;28703;44.412;11.918;2024-02-21T08:29:22;9.00;99.90
39315;DHT22;28703;44.412;11.918;2024-02-21T08:31:48;9.20;99.90
39315;DHT22;28703;44.412;11.918;2024-02-21T08:34:14;9.40;99.90
39315;DHT22;28703;44.412;11.918;2024-02-21T08:36:40;9.60;99.90
39315;DHT22;28703;44.412;11.918;2024-02-21T08:39:06;9.80;99.90
39315;DHT22;28703;44.412;11.918;2024-02-21T08:41:33;10.00;99.90
39315;DHT22;28703;44.412;11.918;2024-02-21T08:43:59;10.20;99.90
39315;DHT22;28703;44.412;11.918;2024-02-21T08:46:26;10.40;99.90
39315;DHT22;28703;44.412;11.918;2024-02-21T08:48:53;10.60;99.90
39315;DHT22;28703;44.412;11.918;2024-02-21T08:51:19;10.80;99.90
39315;DHT22;28703;44.412;11.918;2024-02-21T08:53:45;11.00;99.90
39315;DHT22;28703;44.412;11.918;2024-02-21T08:56:11;11.20;99.90
39315;DHT22;28703;44.412;11.918;2024-02-21T08:58:39;11.40;99.90
39315;DHT22;28703;44.412;11.918;2024-02-21T09:01:05;11.60;99.90
39315;DHT22;28703;44.412;11.918;2024-02-21T09:03:33;11.70;99.90
39315;DHT22;28703;44.412;11.918;2024-02-21T09:05:59;11.90;99.90
39315;DHT22;28703;44.412;11.918;2024-02-21T09:08:25;12.10;99.90
39315;DHT22;28703;44.412;11.918;2024-02-21T09:10:51;12.30;99.90
39315;DHT22;28703;44.412;11.918;2024-02-21T09:13:17;12.50;99.90
39315;DHT22;28703;44.412;11.918;2024-02-21T09:15:43;12.70;99.90
39315;DHT22;28703;44.412;11.918;2024-02-21T09:18:09;12.90;99.90
39315;DHT22;28703;44.412;11.918;2024-02-21T09:20:35;13.00;99.90
39315;DHT22;28703;44.412;11.918;2024-02-21T09:23:01;13.20;99.90
39315;DHT22;28703;44.412;11.918;2024-02-21T09:25:27;13.30;99.90
39315;DHT22;28703;44.412;11.918;2024-02-21T09:27:54;13.50;99.90
39315;DHT22;28703;44.412;11.918;2024-02-21T09:30:20;13.60;99.90
39315;DHT22;28703;44.412;11.918;2024-02-21T09:32:46;13.70;99.90
39315;DHT22;28703;44.412;11.918;2024-02-21T09:35:12;13.80;99.90
39315;DHT22;28703;44.412;11.918;2024-02-21T09:37:38;14.00;99.90
39315;DHT22;28703;44.412;11.918;2024-02-21T09:40:05;14.10;99.90
39315;DHT22;28703;44.412;11.918;2024-02-21T09:42:38;14.20;99.90
39315;DHT22;28703;44.412;11.918;2024-02-21T09:47:50;14.50;99.90
39315;DHT22;28703;44.412;11.918;2024-02-21T09:50:23;14.60;99.90
39315;DHT22;28703;44.412;11.918;2024-02-21T09:52:51;14.70;99.90
39315;DHT22;28703;44.412;11.918;2024-02-21T09:55:18;14.80;99.90
39315;DHT22;28703;44.412;11.918;2024-02-21T09:57:44;14.90;99.90
39315;DHT22;28703;44.412;11.918;2024-02-21T10:00:10;15.00;99.90
39315;DHT22;28703;44.412;11.918;2024-02-21T10:02:39;15.20;99.90
39315;DHT22;28703;44.412;11.918;2024-02-21T10:05:05;15.30;99.90
39315;DHT22;28703;44.412;11.918;2024-02-21T10:07:33;15.40;99.90
39315;DHT22;28703;44.412;11.918;2024-02-21T10:10:05;15.50;99.90
39315;DHT22;28703;44.412;11.918;2024-02-21T10:12:31;15.60;99.90
39315;DHT22;28703;44.412;11.918;2024-02-21T10:15:04;15.60;99.90
39315;DHT22;28703;44.412;11.918;2024-02-21T10:17:32;15.80;99.90
39315;DHT22;28703;44.412;11.918;2024-02-21T10:20:11;15.80;99.90
39315;DHT22;28703;44.412;11.918;2024-02-21T10:22:38;16.00;99.90
39315;DHT22;28703;44.412;11.918;2024-02-21T10:25:09;15.90;99.90
39315;DHT22;28703;44.412;11.918;2024-02-21T10:27:36;16.00;99.90
39315;DHT22;28703;44.412;11.918;2024-02-21T10:30:01;16.00;99.90
39315;DHT22;28703;44.412;11.918;2024-02-21T10:32:27;16.10;99.90
39315;DHT22;28703;44.412;11.918;2024-02-21T10:35:01;16.20;99.90
39315;DHT22;28703;44.412;11.918;2024-02-21T10:37:28;16.40;99.90
39315;DHT22;28703;44.412;11.918;2024-02-21T10:39:54;16.40;99.90
39315;DHT22;28703;44.412;11.918;2024-02-21T10:42:22;16.50;99.90
39315;DHT22;28703;44.412;11.918;2024-02-21T10:44:50;16.70;99.90
39315;DHT22;28703;44.412;11.918;2024-02-21T10:47:19;16.80;99.90
39315;DHT22;28703;44.412;11.918;2024-02-21T10:49:57;16.80;99.90
39315;DHT22;28703;44.412;11.918;2024-02-21T10:52:48;16.80;99.90
39315;DHT22;28703;44.412;11.918;2024-02-21T10:55:29;16.80;99.90
39315;DHT22;28703;44.412;11.918;2024-02-21T10:57:59;16.90;99.90
39315;DHT22;28703;44.412;11.918;2024-02-21T11:00:26;17.10;99.90
39315;DHT22;28703;44.412;11.918;2024-02-21T11:02:57;17.10;99.50
39315;DHT22;28703;44.412;11.918;2024-02-21T11:05:24;17.10;99.40
39315;DHT22;28703;44.412;11.918;2024-02-21T11:07:51;17.20;99.00
39315;DHT22;28703;44.412;11.918;2024-02-21T11:10:24;17.20;98.80
39315;DHT22;28703;44.412;11.918;2024-02-21T11:13:07;17.30;98.60
39315;DHT22;28703;44.412;11.918;2024-02-21T11:15:33;17.30;98.00
39315;DHT22;28703;44.412;11.918;2024-02-21T11:17:59;17.40;98.10
39315;DHT22;28703;44.412;11.918;2024-02-21T11:20:35;17.40;98.20
39315;DHT22;28703;44.412;11.918;2024-02-21T11:23:01;17.50;97.70
39315;DHT22;28703;44.412;11.918;2024-02-21T11:25:28;17.50;97.00
39315;DHT22;28703;44.412;11.918;2024-02-21T11:28:03;17.50;97.20
39315;DHT22;28703;44.412;11.918;2024-02-21T11:30:32;17.60;97.40
39315;DHT22;28703;44.412;11.918;2024-02-21T11:33:05;17.60;97.00
39315;DHT22;28703;44.412;11.918;2024-02-21T11:35:35;17.70;96.90
39315;DHT22;28703;44.412;11.918;2024-02-21T11:38:10;17.70;97.20
39315;DHT22;28703;44.412;11.918;2024-02-21T11:40:42;17.80;97.10
39315;DHT22;28703;44.412;11.918;2024-02-21T11:43:08;17.90;97.10
39315;DHT22;28703;44.412;11.918;2024-02-21T11:45:33;18.00;96.40
39315;DHT22;28703;44.412;11.918;2024-02-21T11:47:59;18.00;96.10
39315;DHT22;28703;44.412;11.918;2024-02-21T11:50:29;18.00;95.80
39315;DHT22;28703;44.412;11.918;2024-02-21T11:52:57;18.00;95.50
39315;DHT22;28703;44.412;11.918;2024-02-21T11:55:23;18.00;95.20
39315;DHT22;28703;44.412;11.918;2024-02-21T11:57:49;18.00;95.40
39315;DHT22;28703;44.412;11.918;2024-02-21T12:00:18;18.00;95.50
39315;DHT22;28703;44.412;11.918;2024-02-21T12:02:47;18.00;95.50
39315;DHT22;28703;44.412;11.918;2024-02-21T12:05:13;18.10;95.40
39315;DHT22;28703;44.412;11.918;2024-02-21T12:07:40;18.10;94.60
39315;DHT22;28703;44.412;11.918;2024-02-21T12:10:13;18.10;94.30
39315;DHT22;28703;44.412;11.918;2024-02-21T12:12:40;18.10;94.40
39315;DHT22;28703;44.412;11.918;2024-02-21T12:15:07;18.00;94.50
39315;DHT22;28703;44.412;11.918;2024-02-21T12:17:36;18.10;95.00
39315;DHT22;28703;44.412;11.918;2024-02-21T12:20:06;18.00;95.10
39315;DHT22;28703;44.412;11.918;2024-02-21T12:22:38;18.00;95.00
39315;DHT22;28703;44.412;11.918;2024-02-21T12:25:07;17.90;94.10
39315;DHT22;28703;44.412;11.918;2024-02-21T12:27:41;17.70;94.40
39315;DHT22;28703;44.412;11.918;2024-02-21T12:30:07;17.70;94.30
39315;DHT22;28703;44.412;11.918;2024-02-21T12:32:36;17.80;93.90
39315;DHT22;28703;44.412;11.918;2024-02-21T12:35:02;17.80;93.60
39315;DHT22;28703;44.412;11.918;2024-02-21T12:37:28;17.70;93.80
39315;DHT22;28703;44.412;11.918;2024-02-21T12:39:54;17.80;94.20
39315;DHT22;28703;44.412;11.918;2024-02-21T12:42:19;17.80;94.20
39315;DHT22;28703;44.412;11.918;2024-02-21T12:44:45;17.80;94.30
39315;DHT22;28703;44.412;11.918;2024-02-21T12:47:11;17.80;94.30
39315;DHT22;28703;44.412;11.918;2024-02-21T12:49:37;17.80;94.20
39315;DHT22;28703;44.412;11.918;2024-02-21T12:52:03;17.70;94.20
39315;DHT22;28703;44.412;11.918;2024-02-21T12:54:29;17.70;94.10
39315;DHT22;28703;44.412;11.918;2024-02-21T12:56:56;17.60;94.00
39315;DHT22;28703;44.412;11.918;2024-02-21T12:59:22;17.60;94.20
39315;DHT22;28703;44.412;11.918;2024-02-21T13:01:48;17.60;93.90
39315;DHT22;28703;44.412;11.918;2024-02-21T13:04:14;17.60;94.00
39315;DHT22;28703;44.412;11.918;2024-02-21T13:06:40;17.60;93.60
39315;DHT22;28703;44.412;11.918;2024-02-21T13:09:06;17.60;93.90
39315;DHT22;28703;44.412;11.918;2024-02-21T13:11:36;17.50;93.70
39315;DHT22;28703;44.412;11.918;2024-02-21T13:14:03;17.50;93.90
39315;DHT22;28703;44.412;11.918;2024-02-21T13:16:29;17.50;93.90
39315;DHT22;28703;44.412;11.918;2024-02-21T13:18:54;17.40;93.70
39315;DHT22;28703;44.412;11.918;2024-02-21T13:21:20;17.30;93.70
39315;DHT22;28703;44.412;11.918;2024-02-21T13:23:46;17.30;93.70
39315;DHT22;28703;44.412;11.918;2024-02-21T13:26:12;17.20;93.50
39315;DHT22;28703;44.412;11.918;2024-02-21T13:28:38;17.20;93.50
39315;DHT22;28703;44.412;11.918;2024-02-21T13:31:04;17.20;93.50
39315;DHT22;28703;44.412;11.918;2024-02-21T13:33:30;17.10;94.10
39315;DHT22;28703;44.412;11.918;2024-02-21T13:35:56;17.10;94.30
39315;DHT22;28703;44.412;11.918;2024-02-21T13:38:21;17.10;94.40
39315;DHT22;28703;44.412;11.918;2024-02-21T13:40:47;17.10;94.20
39315;DHT22;28703;44.412;11.918;2024-02-21T13:43:13;17.10;94.30
39315;DHT22;28703;44.412;11.918;2024-02-21T13:45:39;17.00;95.00
39315;DHT22;28703;44.412;11.918;2024-02-21T13:48:07;17.00;95.00
39315;DHT22;28703;44.412;11.918;2024-02-21T13:50:36;16.90;94.90
39315;DHT22;28703;44.412;11.918;2024-02-21T13:53:08;16.90;95.10
39315;DHT22;28703;44.412;11.918;2024-02-21T13:55:35;16.80;94.90
39315;DHT22;28703;44.412;11.918;2024-02-21T13:58:01;16.80;95.00
39315;DHT22;28703;44.412;11.918;2024-02-21T14:00:28;16.80;95.30
39315;DHT22;28703;44.412;11.918;2024-02-21T14:02:54;16.80;95.00
39315;DHT22;28703;44.412;11.918;2024-02-21T14:05:20;16.80;94.50
39315;DHT22;28703;44.412;11.918;2024-02-21T14:07:46;16.80;94.60
39315;DHT22;28703;44.412;11.918;2024-02-21T14:10:12;16.80;94.70
39315;DHT22;28703;44.412;11.918;2024-02-21T14:12:51;16.80;94.60
39315;DHT22;28703;44.412;11.918;2024-02-21T14:15:21;16.80;94.30
39315;DHT22;28703;44.412;11.918;2024-02-21T14:17:47;16.80;94.30
39315;DHT22;28703;44.412;11.918;2024-02-21T14:20:12;16.80;94.40
39315;DHT22;28703;44.412;11.918;2024-02-21T14:22:39;16.80;94.10
39315;DHT22;28703;44.412;11.918;2024-02-21T14:25:05;16.80;94.00
39315;DHT22;28703;44.412;11.918;2024-02-21T14:27:31;16.70;94.30
39315;DHT22;28703;44.412;11.918;2024-02-21T14:29:57;16.70;94.10
39315;DHT22;28703;44.412;11.918;2024-02-21T14:32:23;16.70;94.10
39315;DHT22;28703;44.412;11.918;2024-02-21T14:34:49;16.70;94.10
39315;DHT22;28703;44.412;11.918;2024-02-21T14:37:15;16.60;94.20
39315;DHT22;28703;44.412;11.918;2024-02-21T14:39:41;16.60;93.90
39315;DHT22;28703;44.412;11.918;2024-02-21T14:42:08;16.60;93.70
39315;DHT22;28703;44.412;11.918;2024-02-21T14:44:37;16.60;93.90
39315;DHT22;28703;44.412;11.918;2024-02-21T14:47:03;16.60;94.10
39315;DHT22;28703;44.412;11.918;2024-02-21T14:49:29;16.50;94.40
39315;DHT22;28703;44.412;11.918;2024-02-21T14:51:55;16.50;95.60
39315;DHT22;28703;44.412;11.918;2024-02-21T14:54:21;16.50;96.20
39315;DHT22;28703;44.412;11.918;2024-02-21T14:56:47;16.50;96.60
39315;DHT22;28703;44.412;11.918;2024-02-21T14:59:13;16.40;96.80
39315;DHT22;28703;44.412;11.918;2024-02-21T15:01:39;16.40;96.90
39315;DHT22;28703;44.412;11.918;2024-02-21T15:04:05;16.30;96.90
39315;DHT22;28703;44.412;11.918;2024-02-21T15:06:31;16.30;97.00
39315;DHT22;28703;44.412;11.918;2024-02-21T15:08:57;16.20;97.10
39315;DHT22;28703;44.412;11.918;2024-02-21T15:11:24;16.20;97.40
39315;DHT22;28703;44.412;11.918;2024-02-21T15:13:49;16.10;97.50
39315;DHT22;28703;44.412;11.918;2024-02-21T15:16:15;16.10;97.60
39315;DHT22;28703;44.412;11.918;2024-02-21T15:18:44;16.10;97.50
39315;DHT22;28703;44.412;11.918;2024-02-21T15:21:10;16.10;97.60
39315;DHT22;28703;44.412;11.918;2024-02-21T15:23:39;16.00;97.90
39315;DHT22;28703;44.412;11.918;2024-02-21T15:26:06;16.00;98.00